HTIR/IRI METAR and TAF weather

Enter ICAO airport designator
Station Type Date Time Source
HTIR METAR 2018/07/16 15:00 UTC NOAA

HTIR 161500Z 18010KT 9999 FEW016 19/08 Q1025


Station Type Date Time Source
HTIR Decoded METAR 2018/07/16 15:00 UTC NOAA

Iringa, Tanzania (HTIR) 07-40S 035-45E 1428M
Jul 16, 2018 - 11:00 AM EDT / 2018.07.16 1500 UTC
Wind: from the S (180 degrees) at 12 MPH (10 KT):0
Visibility: greater than 7 mile(s):0
Sky conditions: mostly clear
Temperature: 66 F (19 C)
Dew Point: 46 F (8 C)
Relative Humidity: 48%
Pressure (altimeter): 30.27 in. Hg (1025 hPa)
ob: HTIR 161500Z 18010KT 9999 FEW016 19/08 Q1025
cycle: 15

Station Type Date Time Source
HTIR TAF UTC NOAA

Error!


Example: see airport list